Time;durP1;ratioP1;P1;durP2;ratioP2;P2;SDS_P1;SDS_P2;PMS_P1;PMS_P2;Temp;Humidity;BMP_temperature;BMP_pressure;BME280_temperature;BME280_humidity;BME280_pressure;Samples;Min_cycle;Max_cycle;Signal;HPM_P1;HPM_P2
2023/08/14 00:01:14;;;;;;;8.10;3.60;;;;;;;17.36;96.14;100929.11;106423;1261;62050;-72
2023/08/14 00:03:41;;;;;;;7.20;2.90;;;;;;;17.32;96.37;100922.54;106380;1263;61180;-73
2023/08/14 00:06:08;;;;;;;6.80;3.30;;;;;;;17.29;96.72;100922.91;106030;1263;73727;-72
2023/08/14 00:08:34;;;;;;;7.20;3.10;;;;;;;17.26;96.80;100923.30;106367;1263;71138;-72
2023/08/14 00:11:01;;;;;;;9.40;3.90;;;;;;;17.23;96.70;100920.14;106261;1263;72747;-72
2023/08/14 00:13:28;;;;;;;7.60;3.90;;;;;;;17.19;96.69;100919.45;106430;1263;61806;-71
2023/08/14 00:15:54;;;;;;;8.00;3.50;;;;;;;17.15;96.68;100916.34;106252;1263;61266;-73
2023/08/14 00:18:21;;;;;;;8.70;3.70;;;;;;;17.12;96.61;100923.68;106235;1260;61266;-72
2023/08/14 00:20:48;;;;;;;8.80;4.00;;;;;;;17.06;96.74;100920.48;106185;1261;71257;-73
2023/08/14 00:23:15;;;;;;;9.00;4.10;;;;;;;17.01;96.95;100922.70;106523;1265;71404;-72
2023/08/14 00:25:41;;;;;;;9.60;3.90;;;;;;;16.97;97.19;100921.89;106424;1260;61139;-74
2023/08/14 00:28:08;;;;;;;8.50;4.70;;;;;;;16.93;97.57;100922.61;106520;1263;60983;-72
2023/08/14 00:30:35;;;;;;;8.30;3.70;;;;;;;16.89;97.93;100929.80;106274;1264;73281;-72
2023/08/14 00:33:01;;;;;;;8.50;4.00;;;;;;;16.86;98.27;100932.02;106317;1268;69834;-72
2023/08/14 00:35:29;;;;;;;10.40;4.10;;;;;;;16.84;98.40;100932.40;106119;1266;71806;-71
2023/08/14 00:37:56;;;;;;;8.50;4.20;;;;;;;16.80;98.67;100933.39;106595;1263;61969;-73
2023/08/14 00:40:23;;;;;;;12.90;4.70;;;;;;;16.79;99.01;100929.28;105974;1262;61307;-72
2023/08/14 00:42:50;;;;;;;9.70;4.10;;;;;;;16.79;99.32;100930.20;106351;1261;74695;-71
2023/08/14 00:45:17;;;;;;;9.70;3.80;;;;;;;16.79;99.64;100930.53;106252;1261;70371;-72
2023/08/14 00:47:47;;;;;;;7.50;3.70;;;;;;;16.78;99.65;100929.70;106345;1260;72622;-72
2023/08/14 00:50:15;;;;;;;9.70;3.90;;;;;;;16.77;99.77;100929.50;106235;1263;61378;-72
2023/08/14 00:52:44;;;;;;;12.20;4.40;;;;;;;16.76;99.75;100929.56;106336;1264;61229;-71
2023/08/14 00:55:15;;;;;;;9.10;3.90;;;;;;;16.74;99.88;100932.70;106239;1262;73192;-72
2023/08/14 00:57:42;;;;;;;7.10;4.10;;;;;;;16.71;99.88;100933.30;106473;1265;69699;-73
2023/08/14 01:00:11;;;;;;;8.20;4.30;;;;;;;16.69;99.91;100929.65;106153;1264;71176;-71
2023/08/14 01:02:38;;;;;;;9.60;4.10;;;;;;;16.68;99.99;100927.67;106359;1265;61154;-72
2023/08/14 01:05:06;;;;;;;8.10;4.00;;;;;;;16.66;99.99;100925.33;106327;1262;61327;-71
2023/08/14 01:07:33;;;;;;;9.20;4.30;;;;;;;16.63;99.99;100924.42;106099;1263;74738;-73
2023/08/14 01:10:01;;;;;;;7.70;4.30;;;;;;;16.60;100.00;100921.73;106129;1268;70711;-71
2023/08/14 01:12:37;;;;;;;7.90;4.20;;;;;;;16.57;100.00;100923.38;106192;1263;72699;-72
2023/08/14 01:15:11;;;;;;;10.70;4.10;;;;;;;16.53;100.00;100919.59;106441;1262;61385;-72
2023/08/14 01:17:43;;;;;;;10.20;4.00;;;;;;;16.50;100.00;100918.67;106678;1263;61194;-73
2023/08/14 01:20:13;;;;;;;9.10;4.20;;;;;;;16.48;100.00;100915.48;106099;1265;74688;-73
2023/08/14 01:22:49;;;;;;;8.40;4.00;;;;;;;16.47;100.00;100919.52;106572;1262;69096;-72
2023/08/14 01:25:29;;;;;;;8.10;4.10;;;;;;;16.45;100.00;100919.55;106328;1260;72424;-73
2023/08/14 01:27:56;;;;;;;10.10;4.30;;;;;;;16.46;100.00;100920.67;106354;1266;62017;-72
2023/08/14 01:30:23;;;;;;;7.10;3.90;;;;;;;16.47;100.00;100913.63;106602;1263;61740;-72
2023/08/14 01:32:50;;;;;;;10.10;4.50;;;;;;;16.48;100.00;100913.29;106312;1263;74795;-72
2023/08/14 01:35:19;;;;;;;8.30;3.90;;;;;;;16.49;100.00;100912.80;106326;1266;70035;-72
2023/08/14 01:38:14;;;;;;;6.10;4.20;;;;;;;16.51;100.00;100913.06;106381;1264;71495;-72
2023/08/14 01:40:56;;;;;;;9.30;4.30;;;;;;;16.51;100.00;100916.41;106477;1261;61314;-73
2023/08/14 01:43:30;;;;;;;9.80;4.10;;;;;;;16.51;100.00;100918.60;106511;1266;61105;-71
2023/08/14 01:45:58;;;;;;;10.20;4.40;;;;;;;16.50;100.00;100918.02;106336;1263;74126;-72
2023/08/14 01:48:27;;;;;;;9.20;4.50;;;;;;;16.48;100.00;100914.73;106584;1263;70317;-73
2023/08/14 01:50:55;;;;;;;8.50;4.40;;;;;;;16.46;100.00;100914.24;106395;1264;71609;-73
2023/08/14 01:53:22;;;;;;;9.90;4.40;;;;;;;16.46;100.00;100909.89;106460;1265;62072;-72
2023/08/14 01:55:49;;;;;;;8.20;4.70;;;;;;;16.44;100.00;100909.96;106522;1265;61160;-71
2023/08/14 01:58:15;;;;;;;9.40;4.50;;;;;;;16.42;100.00;100908.94;106699;1266;73547;-73
2023/08/14 02:00:42;;;;;;;10.30;4.00;;;;;;;16.41;100.00;100905.15;106503;1266;61359;-72
2023/08/14 02:03:09;;;;;;;10.60;4.60;;;;;;;16.42;100.00;100900.53;106094;1264;72268;-71
2023/08/14 02:05:36;;;;;;;12.50;5.50;;;;;;;16.44;100.00;100893.52;106352;1265;61298;-73
2023/08/14 02:08:03;;;;;;;8.00;4.90;;;;;;;16.45;100.00;100893.90;106774;1266;61550;-71
2023/08/14 02:10:29;;;;;;;10.50;4.70;;;;;;;16.45;100.00;100883.86;106644;1263;73024;-71
2023/08/14 02:12:56;;;;;;;7.60;4.30;;;;;;;16.46;100.00;100878.45;106605;1265;70599;-75
2023/08/14 02:15:23;;;;;;;8.40;4.60;;;;;;;16.46;100.00;100876.80;106392;1264;71573;-73
2023/08/14 02:17:50;;;;;;;12.50;4.70;;;;;;;16.45;100.00;100873.67;106434;1264;61973;-73
2023/08/14 02:20:17;;;;;;;9.60;4.80;;;;;;;16.44;100.00;100875.94;106234;1261;61285;-73
2023/08/14 02:22:44;;;;;;;7.60;4.20;;;;;;;16.42;100.00;100879.11;106322;1268;73777;-73
2023/08/14 02:25:10;;;;;;;9.80;4.30;;;;;;;16.41;100.00;100879.86;106575;1263;69906;-72
2023/08/14 02:27:37;;;;;;;10.00;4.60;;;;;;;16.38;100.00;100874.92;106525;1260;71678;-73
2023/08/14 02:30:05;;;;;;;10.30;4.60;;;;;;;16.35;100.00;100872.73;106543;1262;61297;-72
2023/08/14 02:32:31;;;;;;;12.20;4.70;;;;;;;16.33;100.00;100870.85;106723;1265;61608;-74
2023/08/14 02:34:58;;;;;;;8.50;4.50;;;;;;;16.32;100.00;100875.87;106448;1260;73535;-72
2023/08/14 02:37:25;;;;;;;9.00;4.40;;;;;;;16.30;100.00;100877.73;106616;1264;70237;-73
2023/08/14 02:39:52;;;;;;;8.20;4.40;;;;;;;16.30;100.00;100876.29;106725;1265;72796;-72
2023/08/14 02:42:20;;;;;;;9.00;4.50;;;;;;;16.31;100.00;100879.67;106433;1268;61279;-72
2023/08/14 02:44:48;;;;;;;9.60;4.50;;;;;;;16.35;100.00;100876.52;106136;1267;61084;-72
2023/08/14 02:47:15;;;;;;;8.80;4.30;;;;;;;16.39;100.00;100875.48;106546;1264;75270;-73
2023/08/14 02:49:41;;;;;;;10.00;4.40;;;;;;;16.43;100.00;100872.20;106419;1265;70069;-72
2023/08/14 02:52:08;;;;;;;8.80;4.50;;;;;;;16.48;100.00;100873.48;106634;1264;72848;-72
2023/08/14 02:54:35;;;;;;;11.80;5.00;;;;;;;16.50;100.00;100877.33;107005;1261;61374;-72
2023/08/14 02:57:02;;;;;;;7.90;4.50;;;;;;;16.51;100.00;100871.38;106633;1263;61692;-71
2023/08/14 02:59:28;;;;;;;8.50;4.90;;;;;;;16.54;100.00;100872.33;106720;1264;72957;-72
2023/08/14 03:01:55;;;;;;;8.80;4.60;;;;;;;16.56;100.00;100876.36;106492;1263;71244;-72
2023/08/14 03:04:22;;;;;;;9.20;5.00;;;;;;;16.59;100.00;100874.34;106789;1264;71587;-74
2023/08/14 03:06:48;;;;;;;11.50;5.50;;;;;;;16.62;100.00;100873.23;106584;1262;62482;-72
2023/08/14 03:09:16;;;;;;;10.30;5.30;;;;;;;16.65;100.00;100874.69;106429;1266;61284;-71
2023/08/14 03:11:42;;;;;;;7.90;5.40;;;;;;;16.70;100.00;100874.02;106530;1264;73500;-71
2023/08/14 03:14:09;;;;;;;10.50;5.00;;;;;;;16.75;100.00;100872.52;106570;1264;71236;-72
2023/08/14 03:16:36;;;;;;;11.30;4.90;;;;;;;16.79;100.00;100866.33;106569;1264;71458;-72
2023/08/14 03:19:03;;;;;;;7.20;5.00;;;;;;;16.85;100.00;100861.29;106599;1264;60832;-71
2023/08/14 03:21:29;;;;;;;9.60;4.50;;;;;;;16.90;100.00;100863.45;106515;1264;61272;-71
2023/08/14 03:23:56;;;;;;;9.10;5.00;;;;;;;16.95;100.00;100866.34;106375;1264;75409;-72
2023/08/14 03:26:23;;;;;;;8.70;4.50;;;;;;;16.99;100.00;100868.41;106766;1262;71925;-72
2023/08/14 03:28:50;;;;;;;9.70;4.80;;;;;;;17.04;100.00;100865.83;106527;1261;72667;-72
2023/08/14 03:31:16;;;;;;;11.60;4.80;;;;;;;17.06;100.00;100862.68;106537;1263;61689;-72
2023/08/14 03:33:43;;;;;;;8.20;5.00;;;;;;;17.08;100.00;100862.88;106404;1261;61251;-71
2023/08/14 03:36:10;;;;;;;8.60;5.10;;;;;;;17.09;100.00;100862.05;106500;1263;73535;-72
2023/08/14 03:38:37;;;;;;;7.80;4.20;;;;;;;17.08;100.00;100860.35;106785;1266;71104;-72
2023/08/14 03:41:04;;;;;;;9.60;4.20;;;;;;;17.07;100.00;100859.45;106662;1264;71992;-72
2023/08/14 03:43:31;;;;;;;8.90;4.50;;;;;;;17.07;100.00;100859.27;106540;1264;62583;-73
2023/08/14 03:45:58;;;;;;;10.40;4.40;;;;;;;17.07;100.00;100858.72;106259;1261;61227;-72
2023/08/14 03:48:25;;;;;;;11.90;4.40;;;;;;;17.08;100.00;100856.00;106695;1264;74399;-72
2023/08/14 03:50:51;;;;;;;8.30;4.60;;;;;;;17.08;100.00;100851.84;106908;1265;69322;-71
2023/08/14 03:53:18;;;;;;;10.30;4.30;;;;;;;17.06;100.00;100849.90;106408;1264;71557;-72
2023/08/14 03:55:45;;;;;;;9.40;4.60;;;;;;;17.04;100.00;100850.84;106638;1263;61153;-73
2023/08/14 03:58:12;;;;;;;8.90;4.60;;;;;;;16.99;100.00;100852.20;106653;1266;61251;-72
2023/08/14 04:00:39;;;;;;;8.60;4.90;;;;;;;16.94;100.00;100846.30;106814;1263;74374;-72
2023/08/14 04:03:05;;;;;;;9.70;4.80;;;;;;;16.88;100.00;100848.71;106623;1264;70055;-72
2023/08/14 04:05:38;;;;;;;11.30;4.90;;;;;;;16.84;100.00;100847.66;106713;1263;71473;-72
2023/08/14 04:08:05;;;;;;;10.10;5.00;;;;;;;16.80;100.00;100848.92;106530;1266;60704;-72
2023/08/14 04:10:32;;;;;;;9.40;4.90;;;;;;;16.78;100.00;100846.54;106739;1263;61284;-72
2023/08/14 04:12:59;;;;;;;8.20;5.20;;;;;;;16.76;100.00;100842.02;106811;1262;75500;-73
2023/08/14 04:15:26;;;;;;;7.10;4.80;;;;;;;16.75;100.00;100844.58;106527;1265;69761;-73
2023/08/14 04:17:53;;;;;;;7.00;4.40;;;;;;;16.77;100.00;100848.20;106448;1263;73230;-73
2023/08/14 04:20:20;;;;;;;7.20;4.90;;;;;;;16.79;100.00;100849.98;106673;1264;61367;-74
2023/08/14 04:22:47;;;;;;;7.80;4.90;;;;;;;16.80;100.00;100847.86;106652;1264;61692;-74
2023/08/14 04:25:16;;;;;;;8.00;4.80;;;;;;;16.80;100.00;100845.79;106538;1263;74449;-72
2023/08/14 04:27:44;;;;;;;7.50;4.60;;;;;;;16.81;100.00;100848.66;106888;1261;71361;-73
2023/08/14 04:30:11;;;;;;;7.70;5.10;;;;;;;16.83;100.00;100847.50;106463;1260;71687;-73
2023/08/14 04:32:38;;;;;;;7.90;4.60;;;;;;;16.84;100.00;100846.20;107174;1261;61283;-72
2023/08/14 04:35:05;;;;;;;6.80;4.30;;;;;;;16.87;100.00;100845.09;106585;1260;61273;-72
2023/08/14 04:37:32;;;;;;;8.30;4.70;;;;;;;16.90;100.00;100846.27;106651;1266;74419;-72
2023/08/14 04:39:59;;;;;;;7.20;4.30;;;;;;;16.94;100.00;100842.26;106160;1265;70028;-73
2023/08/14 04:42:26;;;;;;;8.90;4.50;;;;;;;16.96;100.00;100841.71;107004;1260;71533;-72
2023/08/14 04:44:52;;;;;;;8.50;4.30;;;;;;;16.99;100.00;100840.73;106818;1262;61197;-72
2023/08/14 04:47:19;;;;;;;10.00;4.30;;;;;;;17.02;100.00;100842.46;106647;1260;61292;-73
2023/08/14 04:49:46;;;;;;;7.70;4.10;;;;;;;17.05;100.00;100842.44;106490;1261;74695;-73
2023/08/14 04:52:13;;;;;;;7.80;4.20;;;;;;;17.08;100.00;100843.98;106552;1263;245719;-72
2023/08/14 04:54:39;;;;;;;8.70;4.40;;;;;;;17.11;100.00;100841.51;106883;1264;71202;-74
2023/08/14 04:57:06;;;;;;;8.90;4.10;;;;;;;17.17;100.00;100839.50;106976;1262;61167;-72
2023/08/14 04:59:33;;;;;;;8.40;3.80;;;;;;;17.22;100.00;100839.02;107075;1260;60489;-74
2023/08/14 05:02:00;;;;;;;7.40;3.80;;;;;;;17.28;100.00;100845.50;106813;1265;75312;-74
2023/08/14 05:04:26;;;;;;;8.20;4.30;;;;;;;17.36;100.00;100845.19;106637;1264;69908;-74
2023/08/14 05:06:54;;;;;;;7.10;3.60;;;;;;;17.46;100.00;100843.12;107019;1263;73191;-74
2023/08/14 05:09:20;;;;;;;9.00;4.10;;;;;;;17.54;99.99;100838.19;106276;1262;61264;-72
2023/08/14 05:11:54;;;;;;;16.70;8.70;;;;;;;17.74;100.00;100836.73;106911;1264;59311;-71
2023/08/14 05:14:21;;;;;;;11.00;4.50;;;;;;;18.02;100.00;100836.64;107196;1264;73463;-70
2023/08/14 05:16:47;;;;;;;5.40;3.20;;;;;;;18.29;100.00;100837.64;107656;1267;71843;-71
2023/08/14 05:19:14;;;;;;;8.20;3.50;;;;;;;18.44;99.40;100840.46;108388;1264;72684;-72
2023/08/14 05:21:41;;;;;;;8.00;3.30;;;;;;;18.56;98.30;100845.66;108556;1263;62055;-71
2023/08/14 05:24:09;;;;;;;9.60;3.40;;;;;;;18.80;98.25;100838.41;108580;1263;60017;-71
2023/08/14 05:26:36;;;;;;;7.00;2.90;;;;;;;18.98;96.63;100841.98;108449;1262;74422;-72
2023/08/14 05:29:03;;;;;;;11.10;3.40;;;;;;;19.16;95.85;100847.09;107514;1264;70503;-71
2023/08/14 05:31:30;;;;;;;4.70;2.50;;;;;;;19.39;94.74;100846.94;107009;1261;71470;-70
2023/08/14 05:33:57;;;;;;;7.00;2.90;;;;;;;19.59;93.43;100841.25;106814;1262;62624;-70
2023/08/14 05:36:23;;;;;;;5.30;2.40;;;;;;;19.87;91.36;100839.86;106844;1264;61291;-71
2023/08/14 05:38:50;;;;;;;5.70;2.20;;;;;;;20.21;89.07;100832.23;107204;1263;73915;-72
2023/08/14 05:41:18;;;;;;;6.40;2.90;;;;;;;20.50;86.85;100831.61;107229;1264;71767;-71
2023/08/14 05:43:45;;;;;;;7.00;2.40;;;;;;;20.73;84.56;100832.23;106666;1264;72433;-70
2023/08/14 05:46:12;;;;;;;6.70;3.20;;;;;;;20.86;84.36;100835.62;106510;1264;61684;-70
2023/08/14 05:48:39;;;;;;;8.00;3.70;;;;;;;20.95;83.50;100835.34;106999;1261;61857;-70
2023/08/14 05:51:05;;;;;;;5.50;2.40;;;;;;;21.00;83.29;100836.48;106513;1263;73641;-71
2023/08/14 05:53:32;;;;;;;5.80;2.40;;;;;;;21.08;82.73;100834.24;106839;1262;69149;-70
2023/08/14 05:55:59;;;;;;;6.00;3.60;;;;;;;21.25;81.58;100832.66;106595;1262;71475;-72
2023/08/14 05:58:26;;;;;;;3.90;2.10;;;;;;;21.44;80.21;100833.34;108074;1264;61125;-70
2023/08/14 06:00:52;;;;;;;38.50;30.00;;;;;;;21.59;79.04;100837.05;107437;1262;59548;-71
2023/08/14 06:03:19;;;;;;;6.50;2.80;;;;;;;21.69;78.26;100830.48;106741;1262;73443;-71
2023/08/14 06:06:04;;;;;;;69.20;51.70;;;;;;;21.73;78.04;100823.78;106917;1262;70449;-70
2023/08/14 06:08:31;;;;;;;35.10;26.50;;;;;;;21.78;77.50;100825.22;107623;1263;72587;-71
2023/08/14 06:10:58;;;;;;;61.00;49.60;;;;;;;21.92;77.07;100824.67;106565;1262;61171;-73
2023/08/14 06:13:25;;;;;;;5.70;3.00;;;;;;;22.02;77.08;100823.62;106999;1263;59394;-71
2023/08/14 06:15:52;;;;;;;52.50;44.40;;;;;;;22.13;76.24;100824.33;106604;1264;73547;-70
2023/08/14 06:18:19;;;;;;;81.90;68.40;;;;;;;22.28;75.42;100833.47;107470;1262;70456;-71
2023/08/14 06:20:45;;;;;;;7.70;2.20;;;;;;;22.43;75.03;100831.46;107105;1262;72628;-71
2023/08/14 06:23:12;;;;;;;14.90;9.10;;;;;;;22.56;74.42;100838.48;106666;1267;62059;-71
2023/08/14 06:25:39;;;;;;;9.00;6.10;;;;;;;22.68;74.48;100845.77;106615;1262;61265;-71
2023/08/14 06:28:05;;;;;;;6.20;2.50;;;;;;;22.77;73.87;100846.00;106780;1263;61376;-70
2023/08/14 06:30:32;;;;;;;128.80;103.20;;;;;;;22.84;73.10;100845.22;107005;1263;69263;-71
2023/08/14 06:33:00;;;;;;;7.70;4.20;;;;;;;22.95;72.58;100848.58;106953;1263;70799;-67
2023/08/14 06:35:27;;;;;;;4.80;2.20;;;;;;;23.03;71.47;100847.98;106909;1263;61707;-70
2023/08/14 06:37:54;;;;;;;23.90;19.30;;;;;;;23.03;70.49;100852.86;106881;1263;61166;-71
2023/08/14 06:40:21;;;;;;;5.80;2.20;;;;;;;23.09;70.19;100851.95;107187;1261;74635;-70
2023/08/14 06:42:48;;;;;;;23.90;16.40;;;;;;;23.20;70.00;100847.08;106867;1263;71115;-71
2023/08/14 06:45:15;;;;;;;36.70;27.50;;;;;;;23.29;69.52;100840.56;106916;1262;71445;-70
2023/08/14 06:47:44;;;;;;;20.60;15.20;;;;;;;23.37;69.45;100832.30;106779;1261;61378;-70
2023/08/14 06:50:18;;;;;;;4.10;1.60;;;;;;;23.50;68.96;100837.02;106938;1261;61263;-71
2023/08/14 06:52:48;;;;;;;137.10;115.30;;;;;;;23.63;68.17;100838.64;106922;1262;74460;-70
2023/08/14 06:55:15;;;;;;;10.30;6.90;;;;;;;23.69;67.89;100832.08;106738;1262;70200;-72
2023/08/14 06:57:42;;;;;;;34.60;29.90;;;;;;;23.70;67.76;100830.15;106758;1264;72027;-70
2023/08/14 07:00:12;;;;;;;51.40;41.00;;;;;;;23.69;67.59;100819.36;106634;1264;61286;-70
2023/08/14 07:02:39;;;;;;;11.00;7.20;;;;;;;23.75;67.34;100825.80;106593;1262;61653;-70
2023/08/14 07:05:10;;;;;;;111.70;96.70;;;;;;;23.82;66.72;100821.05;106666;1262;73451;-70
2023/08/14 07:07:38;;;;;;;95.50;69.70;;;;;;;23.91;66.73;100819.11;106339;1264;70058;-70
2023/08/14 07:10:05;;;;;;;4.30;2.10;;;;;;;24.00;66.01;100818.08;106641;1262;71606;-70
2023/08/14 07:12:32;;;;;;;12.80;8.80;;;;;;;24.08;65.81;100816.18;106801;1262;62439;-70
2023/08/14 07:15:02;;;;;;;149.30;127.70;;;;;;;24.17;65.53;100816.07;106812;1262;61124;-71
2023/08/14 07:17:32;;;;;;;56.40;42.20;;;;;;;24.29;64.50;100820.52;106475;1262;74944;-69
2023/08/14 07:19:59;;;;;;;20.30;16.50;;;;;;;24.41;63.97;100820.63;106777;1261;71063;-70
2023/08/14 07:22:26;;;;;;;3.50;1.50;;;;;;;24.54;63.93;100823.48;106583;1261;71537;-71
2023/08/14 07:24:52;;;;;;;4.50;1.80;;;;;;;24.63;63.57;100832.20;106605;1265;61135;-69
2023/08/14 07:27:19;;;;;;;12.30;9.20;;;;;;;24.67;63.71;100836.93;106579;1263;61279;-70
2023/08/14 07:29:49;;;;;;;11.40;8.90;;;;;;;24.75;63.63;100836.52;106687;1262;74690;-70
2023/08/14 07:32:16;;;;;;;5.80;2.50;;;;;;;24.85;63.02;100836.84;107221;1261;70787;-71
2023/08/14 07:34:43;;;;;;;5.20;3.30;;;;;;;24.88;62.44;100832.55;106361;1263;73385;-70
2023/08/14 07:37:10;;;;;;;6.60;3.90;;;;;;;24.93;62.07;100831.36;106478;1262;61269;-69
2023/08/14 07:39:37;;;;;;;4.50;1.70;;;;;;;25.02;61.72;100828.13;106359;1260;59721;-70
2023/08/14 07:42:04;;;;;;;3.60;1.70;;;;;;;25.14;61.80;100826.04;106813;1261;73457;-70
2023/08/14 07:44:30;;;;;;;8.10;4.60;;;;;;;25.24;61.26;100821.52;106807;1263;70371;-71
2023/08/14 07:46:57;;;;;;;3.60;1.50;;;;;;;25.33;60.33;100814.67;106456;1262;72002;-69
2023/08/14 07:49:24;;;;;;;4.40;1.60;;;;;;;25.43;60.13;100806.80;106536;1260;61694;-70
2023/08/14 07:51:51;;;;;;;3.50;1.40;;;;;;;25.49;59.90;100803.07;106943;1261;61774;-70
2023/08/14 07:54:18;;;;;;;2.80;1.40;;;;;;;25.47;59.39;100799.21;106511;1263;74416;-71
2023/08/14 07:56:44;;;;;;;3.00;1.60;;;;;;;25.39;59.44;100805.39;106206;1263;70025;-70
2023/08/14 07:59:14;;;;;;;7.10;4.80;;;;;;;25.43;60.01;100809.30;106762;1263;70166;-70
2023/08/14 08:01:41;;;;;;;4.90;2.90;;;;;;;25.55;60.00;100810.77;106355;1262;61863;-70
2023/08/14 08:04:09;;;;;;;66.20;57.60;;;;;;;25.71;58.80;100813.55;106731;1263;62892;-70
2023/08/14 08:06:35;;;;;;;5.60;2.90;;;;;;;25.84;58.91;100803.89;106723;1263;73407;-71
2023/08/14 08:09:11;;;;;;;10.20;7.50;;;;;;;26.03;58.92;100809.92;106725;1262;69308;-71
2023/08/14 08:11:38;;;;;;;4.10;2.00;;;;;;;26.20;58.24;100807.59;106699;1261;72714;-71
2023/08/14 08:14:06;;;;;;;3.40;1.60;;;;;;;26.35;57.66;100812.92;106926;1263;61307;-70
2023/08/14 08:16:36;;;;;;;4.40;1.60;;;;;;;26.42;57.41;100813.05;106460;1261;60947;-69
2023/08/14 08:19:04;;;;;;;3.80;1.60;;;;;;;26.57;57.84;100808.06;106916;1262;73891;-70
2023/08/14 08:21:32;;;;;;;4.70;2.30;;;;;;;26.71;57.42;100809.80;106346;1262;70038;-70
2023/08/14 08:23:59;;;;;;;3.10;1.60;;;;;;;26.74;57.12;100808.27;106934;1262;71518;-71
2023/08/14 08:26:25;;;;;;;18.80;14.60;;;;;;;26.65;56.83;100816.09;106566;1263;61692;-70
2023/08/14 08:28:52;;;;;;;4.20;1.70;;;;;;;26.58;56.82;100812.30;106474;1262;61158;-70
2023/08/14 08:31:19;;;;;;;4.50;1.40;;;;;;;26.57;57.28;100820.96;107074;1261;74723;-71
2023/08/14 08:33:46;;;;;;;3.60;1.60;;;;;;;26.67;56.72;100814.61;106816;1262;70041;-71
2023/08/14 08:36:13;;;;;;;3.70;1.70;;;;;;;26.76;56.66;100814.06;106434;1263;72732;-70
2023/08/14 08:38:40;;;;;;;4.80;1.50;;;;;;;26.85;56.89;100810.10;106621;1261;61247;-72
2023/08/14 08:41:10;;;;;;;3.10;1.50;;;;;;;26.98;56.70;100816.81;106564;1263;61246;-71
2023/08/14 08:43:37;;;;;;;4.80;1.60;;;;;;;27.17;56.74;100817.36;107137;1263;74713;-71
2023/08/14 08:46:08;;;;;;;4.90;1.90;;;;;;;27.28;55.81;100814.70;106793;1262;70343;-71
2023/08/14 08:48:40;;;;;;;4.20;1.80;;;;;;;27.31;55.34;100816.19;106655;1263;72770;-70
2023/08/14 08:51:08;;;;;;;7.10;4.20;;;;;;;27.25;54.91;100810.13;106235;1263;61270;-71
2023/08/14 08:53:35;;;;;;;5.20;1.70;;;;;;;27.16;55.32;100803.31;107537;1260;61212;-71
2023/08/14 08:56:06;;;;;;;4.80;1.60;;;;;;;27.13;55.99;100806.98;108302;1260;73541;-72
2023/08/14 08:58:33;;;;;;;4.00;1.60;;;;;;;27.08;55.47;100808.97;108602;1261;71235;-70
2023/08/14 09:01:05;;;;;;;4.40;1.80;;;;;;;27.04;55.19;100807.42;108517;1261;73256;-71
2023/08/14 09:03:33;;;;;;;4.70;1.50;;;;;;;27.08;55.44;100804.25;108368;1261;59084;-71
2023/08/14 09:06:00;;;;;;;5.30;1.70;;;;;;;27.12;55.28;100798.39;107456;1260;61302;-71
2023/08/14 09:08:27;;;;;;;8.30;4.30;;;;;;;27.13;55.64;100797.71;106990;1260;75502;-70
2023/08/14 09:10:54;;;;;;;57.50;44.90;;;;;;;27.16;55.39;100801.40;107582;1261;70641;-71
2023/08/14 09:13:20;;;;;;;131.20;102.70;;;;;;;27.24;55.14;100800.40;108662;1261;72744;-71
2023/08/14 09:15:59;;;;;;;3.50;2.00;;;;;;;27.34;55.07;100800.20;108507;1261;61408;-71
2023/08/14 09:18:26;;;;;;;8.70;5.40;;;;;;;27.51;55.18;100800.55;108711;1262;60334;-72
2023/08/14 09:20:54;;;;;;;18.80;10.10;;;;;;;27.67;55.05;100803.89;108691;1261;73499;-70
2023/08/14 09:23:21;;;;;;;4.00;1.80;;;;;;;27.87;54.68;100806.29;108567;1264;70671;-71
2023/08/14 09:25:50;;;;;;;5.70;1.90;;;;;;;28.00;54.02;100797.05;107985;1262;71983;-71
2023/08/14 09:28:18;;;;;;;21.90;13.00;;;;;;;28.10;53.78;100795.98;106546;1262;61292;-71
2023/08/14 09:30:44;;;;;;;23.30;12.60;;;;;;;28.19;53.04;100796.30;106382;1262;61196;-70
2023/08/14 09:33:12;;;;;;;7.20;1.80;;;;;;;28.32;53.11;100794.38;106478;1263;72789;-70
2023/08/14 09:35:39;;;;;;;4.50;1.80;;;;;;;28.50;53.20;100795.42;106925;1262;71429;-70
2023/08/14 09:38:07;;;;;;;4.70;1.40;;;;;;;28.67;53.32;100788.98;106585;1261;72024;-70
2023/08/14 09:40:34;;;;;;;4.40;1.50;;;;;;;28.74;51.62;100792.01;106885;1261;61918;-70
2023/08/14 09:43:01;;;;;;;6.50;3.20;;;;;;;28.70;51.00;100790.59;107175;1261;61363;-71
2023/08/14 09:45:29;;;;;;;6.20;1.80;;;;;;;28.64;50.95;100793.90;108463;1262;73579;-71
2023/08/14 09:48:03;;;;;;;8.10;4.00;;;;;;;28.56;50.80;100797.83;108611;1262;71239;-72
2023/08/14 09:50:31;;;;;;;3.70;1.40;;;;;;;28.58;51.80;100794.95;108528;1261;72388;-70
2023/08/14 09:53:00;;;;;;;3.60;1.60;;;;;;;28.64;51.48;100797.44;108547;1262;60117;-71
2023/08/14 09:55:27;;;;;;;5.80;1.60;;;;;;;28.68;50.14;100794.71;108515;1262;59646;-71
2023/08/14 09:57:57;;;;;;;3.30;1.60;;;;;;;28.80;50.41;100790.78;108459;1262;74790;-72
2023/08/14 10:00:29;;;;;;;3.90;1.60;;;;;;;29.01;50.50;100795.88;107458;1263;71186;-70
2023/08/14 10:02:58;;;;;;;3.60;1.50;;;;;;;29.19;50.78;100784.36;106611;1261;72730;-72
2023/08/14 10:05:29;;;;;;;4.40;1.70;;;;;;;29.37;49.28;100786.75;106527;1263;61154;-71
2023/08/14 10:07:58;;;;;;;3.70;1.40;;;;;;;29.43;48.26;100790.37;106731;1262;61200;-70
2023/08/14 10:10:29;;;;;;;3.80;1.40;;;;;;;29.46;47.12;100789.48;107187;1262;73857;-70
2023/08/14 10:12:58;;;;;;;5.10;2.90;;;;;;;29.50;47.64;100785.33;108178;1262;70145;-72
2023/08/14 10:15:31;;;;;;;3.70;1.60;;;;;;;29.55;46.74;100790.81;107045;1262;72470;-72
2023/08/14 10:18:03;;;;;;;3.60;1.80;;;;;;;29.55;47.01;100785.63;108571;1262;59403;-71
2023/08/14 10:20:34;;;;;;;8.00;5.70;;;;;;;29.58;47.09;100785.41;108630;1262;59710;-72
2023/08/14 10:23:02;;;;;;;3.10;1.40;;;;;;;29.52;45.12;100786.77;108565;1262;73685;-71
2023/08/14 10:25:29;;;;;;;5.20;2.20;;;;;;;29.39;44.35;100785.30;108619;1262;71248;-71
2023/08/14 10:27:56;;;;;;;4.10;1.60;;;;;;;29.25;44.39;100782.84;108553;1262;71280;-71
2023/08/14 10:30:24;;;;;;;3.40;1.70;;;;;;;29.11;45.14;100781.75;107961;1262;61312;-71
2023/08/14 10:32:52;;;;;;;3.50;1.50;;;;;;;29.08;46.37;100785.11;106934;1261;61759;-71
2023/08/14 10:35:23;;;;;;;6.30;4.00;;;;;;;29.11;46.43;100783.57;107654;1263;73721;-73
2023/08/14 10:37:52;;;;;;;3.60;1.50;;;;;;;29.17;46.92;100783.79;107678;1262;71183;-70
2023/08/14 10:40:34;;;;;;;3.80;1.60;;;;;;;29.30;46.28;100782.95;106570;1263;72912;-73
2023/08/14 10:43:01;;;;;;;152.00;126.20;;;;;;;29.37;45.74;100780.24;106533;1262;61777;-71
2023/08/14 10:45:28;;;;;;;5.30;1.40;;;;;;;29.40;45.68;100781.94;107086;1262;61319;-71
2023/08/14 10:48:07;;;;;;;2.90;1.50;;;;;;;29.39;45.93;100780.36;106836;1261;74572;-70
2023/08/14 10:50:34;;;;;;;4.10;1.40;;;;;;;29.31;46.22;100779.91;107037;1261;70057;-70
2023/08/14 10:53:05;;;;;;;4.00;1.60;;;;;;;29.25;46.73;100777.77;106553;1261;73167;-72
2023/08/14 10:55:45;;;;;;;3.70;1.60;;;;;;;29.23;46.91;100778.40;106707;1263;61797;-70
2023/08/14 10:58:35;;;;;;;5.70;1.60;;;;;;;29.14;46.79;100778.38;106416;1262;61287;-70
2023/08/14 11:01:05;;;;;;;3.40;1.50;;;;;;;29.04;46.81;100782.66;106514;1262;73781;-70
2023/08/14 11:03:54;;;;;;;3.40;1.60;;;;;;;29.06;47.41;100782.98;106194;1262;70172;-71
2023/08/14 11:06:57;;;;;;;3.10;1.20;;;;;;;29.24;47.20;100783.80;106784;1261;71488;-72
2023/08/14 11:09:32;;;;;;;3.70;1.60;;;;;;;29.14;45.98;100789.31;106460;1265;61180;-71
2023/08/14 11:12:09;;;;;;;3.90;1.50;;;;;;;29.08;46.53;100789.66;106507;1262;60112;-70
2023/08/14 11:14:40;;;;;;;3.90;1.40;;;;;;;29.06;46.08;100794.54;106496;1263;73751;-70
2023/08/14 11:17:08;;;;;;;4.00;1.60;;;;;;;29.11;46.28;100797.96;106762;1262;72173;-69